sensor_id;sensor_type;location;lat;lon;timestamp;pressure;altitude;pressure_sealevel;temperature;humidity
72409;BME280;60402;48.082;11.628;2022-08-01T00:01:35;95347.91;;;20.97;60.05
72409;BME280;60402;48.082;11.628;2022-08-01T00:04:01;95349.22;;;21.02;59.56
72409;BME280;60402;48.082;11.628;2022-08-01T00:06:27;95335.91;;;20.99;59.68
72409;BME280;60402;48.082;11.628;2022-08-01T00:08:52;95336.66;;;20.93;60.05
72409;BME280;60402;48.082;11.628;2022-08-01T00:11:18;95334.59;;;21.00;59.61
72409;BME280;60402;48.082;11.628;2022-08-01T00:13:43;95337.75;;;21.07;59.40
72409;BME280;60402;48.082;11.628;2022-08-01T00:16:08;95343.00;;;21.09;58.94
72409;BME280;60402;48.082;11.628;2022-08-01T00:18:34;95335.69;;;21.08;59.21
72409;BME280;60402;48.082;11.628;2022-08-01T00:21:01;95339.59;;;21.05;59.05
72409;BME280;60402;48.082;11.628;2022-08-01T00:23:26;95345.31;;;21.05;59.17
72409;BME280;60402;48.082;11.628;2022-08-01T00:25:52;95351.06;;;21.05;58.96
72409;BME280;60402;48.082;11.628;2022-08-01T00:28:17;95347.91;;;21.03;59.01
72409;BME280;60402;48.082;11.628;2022-08-01T00:30:42;95344.50;;;20.93;59.32
72409;BME280;60402;48.082;11.628;2022-08-01T00:33:08;95349.22;;;21.02;59.05
72409;BME280;60402;48.082;11.628;2022-08-01T00:35:33;95342.41;;;20.93;59.44
72409;BME280;60402;48.082;11.628;2022-08-01T00:37:58;95349.22;;;21.02;59.03
72409;BME280;60402;48.082;11.628;2022-08-01T00:40:24;95346.59;;;20.98;59.10
72409;BME280;60402;48.082;11.628;2022-08-01T00:42:49;95351.31;;;20.96;59.81
72409;BME280;60402;48.082;11.628;2022-08-01T00:45:15;95355.47;;;20.89;59.76
72409;BME280;60402;48.082;11.628;2022-08-01T00:47:40;95356.50;;;20.91;59.74
72409;BME280;60402;48.082;11.628;2022-08-01T00:50:06;95358.06;;;20.92;59.94
72409;BME280;60402;48.082;11.628;2022-08-01T00:52:33;95345.78;;;20.86;59.91
72409;BME280;60402;48.082;11.628;2022-08-01T00:54:59;95356.94;;;20.73;60.69
72409;BME280;60402;48.082;11.628;2022-08-01T00:57:24;95357.47;;;20.72;60.75
72409;BME280;60402;48.082;11.628;2022-08-01T00:59:51;95353.81;;;20.65;61.07
72409;BME280;60402;48.082;11.628;2022-08-01T01:02:17;95349.34;;;20.64;60.85
72409;BME280;60402;48.082;11.628;2022-08-01T01:04:43;95361.28;;;20.52;61.29
72409;BME280;60402;48.082;11.628;2022-08-01T01:07:27;95358.88;;;20.45;61.31
72409;BME280;60402;48.082;11.628;2022-08-01T01:10:03;95342.88;;;20.32;61.42
72409;BME280;60402;48.082;11.628;2022-08-01T01:15:08;95358.59;;;20.42;61.20
72409;BME280;60402;48.082;11.628;2022-08-01T01:17:55;95359.38;;;20.37;61.44
72409;BME280;60402;48.082;11.628;2022-08-01T01:20:27;95353.34;;;20.41;61.13
72409;BME280;60402;48.082;11.628;2022-08-01T01:31:24;95363.84;;;20.07;61.63
72409;BME280;60402;48.082;11.628;2022-08-01T01:33:51;95370.09;;;20.05;61.94
72409;BME280;60402;48.082;11.628;2022-08-01T01:36:19;95362.25;;;20.00;61.72
72409;BME280;60402;48.082;11.628;2022-08-01T01:38:46;95374.19;;;19.99;61.88
72409;BME280;60402;48.082;11.628;2022-08-01T01:41:14;95362.66;;;19.87;61.97
72409;BME280;60402;48.082;11.628;2022-08-01T01:43:41;95367.38;;;19.90;61.68
72409;BME280;60402;48.082;11.628;2022-08-01T01:46:09;95372.00;;;19.82;62.32
72409;BME280;60402;48.082;11.628;2022-08-01T01:48:35;95369.72;;;19.92;61.37
72409;BME280;60402;48.082;11.628;2022-08-01T01:51:02;95375.13;;;19.84;61.73
72409;BME280;60402;48.082;11.628;2022-08-01T01:53:29;95369.97;;;19.88;61.55
72409;BME280;60402;48.082;11.628;2022-08-01T01:55:58;95378.09;;;19.96;61.30
72409;BME280;60402;48.082;11.628;2022-08-01T01:58:25;95370.97;;;19.85;61.53
72409;BME280;60402;48.082;11.628;2022-08-01T02:00:55;95364.44;;;19.85;61.76
72409;BME280;60402;48.082;11.628;2022-08-01T02:03:23;95369.91;;;19.83;61.29
72409;BME280;60402;48.082;11.628;2022-08-01T02:05:50;95362.09;;;19.83;61.55
72409;BME280;60402;48.082;11.628;2022-08-01T02:08:17;95374.19;;;19.99;60.83
72409;BME280;60402;48.082;11.628;2022-08-01T02:10:44;95373.66;;;19.95;60.92
72409;BME280;60402;48.082;11.628;2022-08-01T02:13:31;95375.44;;;19.86;61.10
72409;BME280;60402;48.082;11.628;2022-08-01T02:15:57;95373.59;;;19.89;61.29
72409;BME280;60402;48.082;11.628;2022-08-01T02:18:23;95372.41;;;20.01;60.81
72409;BME280;60402;48.082;11.628;2022-08-01T02:20:48;95366.56;;;19.90;61.09
72409;BME280;60402;48.082;11.628;2022-08-01T02:23:16;95375.44;;;19.86;61.48
72409;BME280;60402;48.082;11.628;2022-08-01T02:25:50;95383.75;;;19.84;61.29
72409;BME280;60402;48.082;11.628;2022-08-01T02:28:22;95379.81;;;19.82;61.23
72409;BME280;60402;48.082;11.628;2022-08-01T02:30:53;95383.44;;;19.77;61.38
72409;BME280;60402;48.082;11.628;2022-08-01T02:33:21;95384.78;;;19.81;61.17
72409;BME280;60402;48.082;11.628;2022-08-01T02:35:58;95393.91;;;19.85;61.14
72409;BME280;60402;48.082;11.628;2022-08-01T02:38:27;95387.56;;;19.76;61.28
72409;BME280;60402;48.082;11.628;2022-08-01T02:40:56;95382.53;;;19.65;61.08
72409;BME280;60402;48.082;11.628;2022-08-01T02:43:25;95383.09;;;19.69;60.93
72409;BME280;60402;48.082;11.628;2022-08-01T02:46:00;95386.53;;;19.73;60.74
72409;BME280;60402;48.082;11.628;2022-08-01T02:48:27;95384.69;;;19.76;60.49
72409;BME280;60402;48.082;11.628;2022-08-01T02:50:57;95390.13;;;19.68;61.04
72409;BME280;60402;48.082;11.628;2022-08-01T02:53:24;95381.56;;;19.74;60.53
72409;BME280;60402;48.082;11.628;2022-08-01T02:55:52;95388.81;;;19.69;60.70
72409;BME280;60402;48.082;11.628;2022-08-01T02:58:20;95383.25;;;19.60;60.58
72409;BME280;60402;48.082;11.628;2022-08-01T03:00:46;95390.56;;;19.61;61.09
72409;BME280;60402;48.082;11.628;2022-08-01T03:03:13;95389.19;;;19.56;60.95
72409;BME280;60402;48.082;11.628;2022-08-01T03:05:40;95406.19;;;19.60;61.01
72409;BME280;60402;48.082;11.628;2022-08-01T03:08:08;95388.56;;;19.67;60.70
72409;BME280;60402;48.082;11.628;2022-08-01T03:10:37;95389.19;;;19.56;61.08
72409;BME280;60402;48.082;11.628;2022-08-01T03:13:04;95386.78;;;19.49;61.25
72409;BME280;60402;48.082;11.628;2022-08-01T03:15:34;95394.09;;;19.50;61.44
72409;BME280;60402;48.082;11.628;2022-08-01T03:18:02;95390.59;;;19.40;61.62
72409;BME280;60402;48.082;11.628;2022-08-01T03:20:30;95394.78;;;19.39;61.67
72409;BME280;60402;48.082;11.628;2022-08-01T03:22:59;95404.94;;;19.40;61.31
72409;BME280;60402;48.082;11.628;2022-08-01T03:25:27;95398.13;;;19.38;61.50
72409;BME280;60402;48.082;11.628;2022-08-01T03:27:56;95393.38;;;19.29;61.89
72409;BME280;60402;48.082;11.628;2022-08-01T03:30:23;95398.28;;;19.29;61.77
72409;BME280;60402;48.082;11.628;2022-08-01T03:32:50;95399.31;;;19.26;62.06
72409;BME280;60402;48.082;11.628;2022-08-01T03:35:16;95408.19;;;19.28;62.17
72409;BME280;60402;48.082;11.628;2022-08-01T03:37:44;95398.75;;;19.22;61.97
72409;BME280;60402;48.082;11.628;2022-08-01T03:40:15;95399.78;;;19.24;61.94
72409;BME280;60402;48.082;11.628;2022-08-01T03:42:45;95401.66;;;19.27;61.61
72409;BME280;60402;48.082;11.628;2022-08-01T03:45:22;95404.59;;;19.33;61.54
72409;BME280;60402;48.082;11.628;2022-08-01T03:47:52;95407.34;;;19.22;61.82
72409;BME280;60402;48.082;11.628;2022-08-01T03:50:20;95420.56;;;19.19;61.78
72409;BME280;60402;48.082;11.628;2022-08-01T03:52:49;95418.78;;;19.22;61.65
72409;BME280;60402;48.082;11.628;2022-08-01T03:55:16;95419.59;;;19.22;61.46
72409;BME280;60402;48.082;11.628;2022-08-01T03:57:44;95418.28;;;19.23;61.41
72409;BME280;60402;48.082;11.628;2022-08-01T04:00:10;95427.75;;;19.29;61.33
72409;BME280;60402;48.082;11.628;2022-08-01T04:02:36;95430.47;;;19.18;61.92
72409;BME280;60402;48.082;11.628;2022-08-01T04:05:03;95432.53;;;19.18;62.06
72409;BME280;60402;48.082;11.628;2022-08-01T04:07:30;95433.28;;;19.12;61.80
72409;BME280;60402;48.082;11.628;2022-08-01T04:09:56;95438.63;;;19.25;61.69
72409;BME280;60402;48.082;11.628;2022-08-01T04:12:22;95427.34;;;19.16;62.17
72409;BME280;60402;48.082;11.628;2022-08-01T04:14:47;95433.34;;;19.18;61.94
72409;BME280;60402;48.082;11.628;2022-08-01T04:17:14;95444.56;;;19.22;61.73
72409;BME280;60402;48.082;11.628;2022-08-01T04:19:40;95445.41;;;19.28;61.28
72409;BME280;60402;48.082;11.628;2022-08-01T04:22:06;95444.63;;;19.27;61.51
72409;BME280;60402;48.082;11.628;2022-08-01T04:24:33;95440.94;;;19.21;61.51
72409;BME280;60402;48.082;11.628;2022-08-01T04:27:01;95443.50;;;19.19;61.54
72409;BME280;60402;48.082;11.628;2022-08-01T04:29:27;95440.72;;;19.25;61.35
72409;BME280;60402;48.082;11.628;2022-08-01T04:31:56;95449.53;;;19.21;61.50
72409;BME280;60402;48.082;11.628;2022-08-01T04:34:24;95459.75;;;19.28;61.45
72409;BME280;60402;48.082;11.628;2022-08-01T04:36:51;95461.03;;;19.27;61.47
72409;BME280;60402;48.082;11.628;2022-08-01T04:39:18;95457.19;;;19.30;61.41
72409;BME280;60402;48.082;11.628;2022-08-01T04:41:46;95451.38;;;19.24;61.36
72409;BME280;60402;48.082;11.628;2022-08-01T04:44:12;95467.69;;;19.18;61.43
72409;BME280;60402;48.082;11.628;2022-08-01T04:46:38;95464.13;;;19.23;61.41
72409;BME280;60402;48.082;11.628;2022-08-01T04:49:06;95457.59;;;19.23;61.08
72409;BME280;60402;48.082;11.628;2022-08-01T04:51:34;95468.13;;;19.31;61.53
72409;BME280;60402;48.082;11.628;2022-08-01T04:53:59;95464.28;;;19.34;61.07
72409;BME280;60402;48.082;11.628;2022-08-01T04:56:26;95467.72;;;19.38;61.06
72409;BME280;60402;48.082;11.628;2022-08-01T04:58:51;95465.31;;;19.37;61.21
72409;BME280;60402;48.082;11.628;2022-08-01T05:01:37;95473.75;;;19.46;61.02
72409;BME280;60402;48.082;11.628;2022-08-01T05:04:02;95469.13;;;19.49;61.18
72409;BME280;60402;48.082;11.628;2022-08-01T05:06:28;95462.88;;;19.50;60.61
72409;BME280;60402;48.082;11.628;2022-08-01T05:08:53;95470.69;;;19.50;61.04
72409;BME280;60402;48.082;11.628;2022-08-01T05:11:18;95472.69;;;19.64;61.09
72409;BME280;60402;48.082;11.628;2022-08-01T05:13:43;95467.31;;;19.72;60.20
72409;BME280;60402;48.082;11.628;2022-08-01T05:16:09;95471.88;;;19.89;60.36
72409;BME280;60402;48.082;11.628;2022-08-01T05:18:34;95471.97;;;19.95;59.72
72409;BME280;60402;48.082;11.628;2022-08-01T05:21:00;95476.53;;;20.13;59.54
72409;BME280;60402;48.082;11.628;2022-08-01T05:23:26;95476.06;;;20.14;59.50
72409;BME280;60402;48.082;11.628;2022-08-01T05:25:52;95486.88;;;20.31;59.64
72409;BME280;60402;48.082;11.628;2022-08-01T05:28:17;95482.28;;;20.45;58.92
72409;BME280;60402;48.082;11.628;2022-08-01T05:30:43;95482.91;;;20.54;57.96
72409;BME280;60402;48.082;11.628;2022-08-01T05:33:08;95482.19;;;20.65;58.38
72409;BME280;60402;48.082;11.628;2022-08-01T05:35:33;95482.28;;;20.76;57.91
72409;BME280;60402;48.082;11.628;2022-08-01T05:37:59;95487.28;;;20.81;57.92
72409;BME280;60402;48.082;11.628;2022-08-01T05:40:24;95484.78;;;21.00;57.55
72409;BME280;60402;48.082;11.628;2022-08-01T05:42:49;95482.03;;;21.28;56.29
72409;BME280;60402;48.082;11.628;2022-08-01T05:45:15;95488.38;;;21.43;56.74
72409;BME280;60402;48.082;11.628;2022-08-01T05:47:40;95479.22;;;21.34;56.56
72409;BME280;60402;48.082;11.628;2022-08-01T05:50:06;95492.34;;;21.57;55.82
72409;BME280;60402;48.082;11.628;2022-08-01T05:52:31;95495.53;;;21.65;55.99
72409;BME280;60402;48.082;11.628;2022-08-01T05:54:56;95493.16;;;21.63;56.14
72409;BME280;60402;48.082;11.628;2022-08-01T05:57:22;95502.31;;;21.67;56.01
72409;BME280;60402;48.082;11.628;2022-08-01T05:59:47;95492.13;;;21.61;56.60
72409;BME280;60402;48.082;11.628;2022-08-01T06:02:12;95500.22;;;21.62;55.78
72409;BME280;60402;48.082;11.628;2022-08-01T06:04:38;95505.75;;;21.83;55.22
72409;BME280;60402;48.082;11.628;2022-08-01T06:07:03;95497.88;;;21.72;56.11
72409;BME280;60402;48.082;11.628;2022-08-01T06:09:28;95506.03;;;21.79;55.86
72409;BME280;60402;48.082;11.628;2022-08-01T06:11:55;95499.28;;;22.05;54.46
72409;BME280;60402;48.082;11.628;2022-08-01T06:14:21;95505.34;;;22.29;53.98
72409;BME280;60402;48.082;11.628;2022-08-01T06:16:46;95500.63;;;22.49;53.99
72409;BME280;60402;48.082;11.628;2022-08-01T06:19:12;95507.19;;;22.66;53.05
72409;BME280;60402;48.082;11.628;2022-08-01T06:21:37;95505.59;;;22.87;52.47
72409;BME280;60402;48.082;11.628;2022-08-01T06:24:03;95501.41;;;22.71;52.30
72409;BME280;60402;48.082;11.628;2022-08-01T06:26:28;95510.31;;;22.79;51.64
72409;BME280;60402;48.082;11.628;2022-08-01T06:28:53;95508.47;;;23.15;50.59
72409;BME280;60402;48.082;11.628;2022-08-01T06:31:19;95501.13;;;23.03;51.50
72409;BME280;60402;48.082;11.628;2022-08-01T06:33:44;95507.53;;;23.54;50.04
72409;BME280;60402;48.082;11.628;2022-08-01T06:36:09;95499.06;;;23.79;49.47
72409;BME280;60402;48.082;11.628;2022-08-01T06:38:35;95507.72;;;24.20;48.72
72409;BME280;60402;48.082;11.628;2022-08-01T06:41:00;95516.19;;;24.84;46.90
72409;BME280;60402;48.082;11.628;2022-08-01T06:43:26;95512.63;;;24.72;46.67
72409;BME280;60402;48.082;11.628;2022-08-01T06:45:51;95513.41;;;24.72;46.63
72409;BME280;60402;48.082;11.628;2022-08-01T06:48:16;95512.06;;;24.73;46.28
72409;BME280;60402;48.082;11.628;2022-08-01T06:50:42;95506.78;;;24.78;46.91
72409;BME280;60402;48.082;11.628;2022-08-01T06:53:07;95507.91;;;24.99;46.22
72409;BME280;60402;48.082;11.628;2022-08-01T06:55:32;95504.38;;;25.36;45.64
72409;BME280;60402;48.082;11.628;2022-08-01T06:57:58;95506.88;;;25.70;44.40
72409;BME280;60402;48.082;11.628;2022-08-01T07:00:24;95501.25;;;26.34;42.95
72409;BME280;60402;48.082;11.628;2022-08-01T07:02:51;95504.41;;;26.87;42.41
72409;BME280;60402;48.082;11.628;2022-08-01T07:05:17;95510.31;;;27.54;40.84
72409;BME280;60402;48.082;11.628;2022-08-01T07:07:42;95504.19;;;27.57;40.09
72409;BME280;60402;48.082;11.628;2022-08-01T07:10:08;95493.56;;;28.47;38.88
72409;BME280;60402;48.082;11.628;2022-08-01T07:12:34;95512.94;;;29.77;36.63
72409;BME280;60402;48.082;11.628;2022-08-01T07:15:03;95506.25;;;31.47;33.56
72409;BME280;60402;48.082;11.628;2022-08-01T07:17:28;95504.75;;;33.05;30.76
72409;BME280;60402;48.082;11.628;2022-08-01T07:19:54;95509.81;;;35.11;28.00
72409;BME280;60402;48.082;11.628;2022-08-01T07:22:19;95516.06;;;34.97;27.85
72409;BME280;60402;48.082;11.628;2022-08-01T07:24:45;95510.03;;;35.59;26.56
72409;BME280;60402;48.082;11.628;2022-08-01T07:27:11;95509.66;;;37.08;24.94
72409;BME280;60402;48.082;11.628;2022-08-01T07:29:36;95509.88;;;36.91;24.45
72409;BME280;60402;48.082;11.628;2022-08-01T07:32:02;95508.69;;;37.66;23.30
72409;BME280;60402;48.082;11.628;2022-08-01T07:34:27;95514.31;;;39.23;21.83
72409;BME280;60402;48.082;11.628;2022-08-01T07:36:53;95516.59;;;38.80;22.94
72409;BME280;60402;48.082;11.628;2022-08-01T07:39:18;95514.16;;;40.50;20.23
72409;BME280;60402;48.082;11.628;2022-08-01T07:41:44;95520.38;;;40.31;21.46
72409;BME280;60402;48.082;11.628;2022-08-01T07:44:09;95508.59;;;38.71;22.19
72409;BME280;60402;48.082;11.628;2022-08-01T07:46:35;95509.59;;;39.30;21.22
72409;BME280;60402;48.082;11.628;2022-08-01T07:49:00;95502.69;;;40.94;20.28
72409;BME280;60402;48.082;11.628;2022-08-01T07:51:26;95504.94;;;42.13;19.14
72409;BME280;60402;48.082;11.628;2022-08-01T07:53:51;95514.81;;;40.37;21.29
72409;BME280;60402;48.082;11.628;2022-08-01T07:56:16;95520.31;;;39.82;21.20
72409;BME280;60402;48.082;11.628;2022-08-01T07:58:42;95519.84;;;39.29;22.07
72409;BME280;60402;48.082;11.628;2022-08-01T08:01:07;95529.72;;;40.63;20.15
72409;BME280;60402;48.082;11.628;2022-08-01T08:03:33;95512.53;;;41.89;19.28
72409;BME280;60402;48.082;11.628;2022-08-01T08:05:58;95522.09;;;42.28;18.26
72409;BME280;60402;48.082;11.628;2022-08-01T08:08:23;95524.56;;;40.63;20.41
72409;BME280;60402;48.082;11.628;2022-08-01T08:10:49;95521.53;;;41.91;19.20
72409;BME280;60402;48.082;11.628;2022-08-01T08:13:14;95522.06;;;42.70;18.52
72409;BME280;60402;48.082;11.628;2022-08-01T08:15:40;95522.22;;;42.30;18.91
72409;BME280;60402;48.082;11.628;2022-08-01T08:18:05;95526.13;;;42.49;18.79
72409;BME280;60402;48.082;11.628;2022-08-01T08:20:30;95527.03;;;42.37;18.74
72409;BME280;60402;48.082;11.628;2022-08-01T08:22:56;95518.28;;;41.73;18.75
72409;BME280;60402;48.082;11.628;2022-08-01T08:25:24;95527.38;;;40.00;20.85
72409;BME280;60402;48.082;11.628;2022-08-01T08:27:50;95515.66;;;39.91;20.99
72409;BME280;60402;48.082;11.628;2022-08-01T08:30:15;95515.88;;;39.36;22.02
72409;BME280;60402;48.082;11.628;2022-08-01T08:32:41;95510.59;;;38.90;22.46
72409;BME280;60402;48.082;11.628;2022-08-01T08:35:07;95504.84;;;38.37;22.70
72409;BME280;60402;48.082;11.628;2022-08-01T08:37:34;95511.44;;;38.47;23.29
72409;BME280;60402;48.082;11.628;2022-08-01T08:40:00;95513.94;;;38.63;22.52
72409;BME280;60402;48.082;11.628;2022-08-01T08:42:26;95496.34;;;38.31;22.96
72409;BME280;60402;48.082;11.628;2022-08-01T08:44:51;95506.75;;;37.80;23.92
72409;BME280;60402;48.082;11.628;2022-08-01T08:47:19;95493.31;;;37.26;24.17
72409;BME280;60402;48.082;11.628;2022-08-01T08:49:47;95500.44;;;36.53;26.13
72409;BME280;60402;48.082;11.628;2022-08-01T08:52:14;95496.72;;;36.33;25.74
72409;BME280;60402;48.082;11.628;2022-08-01T08:54:41;95502.28;;;36.20;25.78
72409;BME280;60402;48.082;11.628;2022-08-01T08:57:06;95501.88;;;35.67;27.03
72409;BME280;60402;48.082;11.628;2022-08-01T08:59:32;95504.81;;;35.67;26.31
72409;BME280;60402;48.082;11.628;2022-08-01T09:01:58;95502.31;;;35.27;27.08
72409;BME280;60402;48.082;11.628;2022-08-01T09:04:25;95496.19;;;33.92;28.49
72409;BME280;60402;48.082;11.628;2022-08-01T09:06:51;95497.56;;;33.91;28.91
72409;BME280;60402;48.082;11.628;2022-08-01T09:09:17;95498.13;;;33.54;29.77
72409;BME280;60402;48.082;11.628;2022-08-01T09:11:43;95490.06;;;33.80;29.13
72409;BME280;60402;48.082;11.628;2022-08-01T09:14:14;95500.38;;;33.64;28.90
72409;BME280;60402;48.082;11.628;2022-08-01T09:16:44;95495.16;;;33.79;28.86
72409;BME280;60402;48.082;11.628;2022-08-01T09:21:38;95499.03;;;32.82;30.47
72409;BME280;60402;48.082;11.628;2022-08-01T09:24:13;95493.69;;;32.55;31.19
72409;BME280;60402;48.082;11.628;2022-08-01T09:26:39;95489.28;;;32.47;30.91
72409;BME280;60402;48.082;11.628;2022-08-01T09:29:06;95496.50;;;31.83;32.62
72409;BME280;60402;48.082;11.628;2022-08-01T09:31:43;95483.72;;;32.18;31.56
72409;BME280;60402;48.082;11.628;2022-08-01T09:34:09;95485.09;;;32.17;32.31
72409;BME280;60402;48.082;11.628;2022-08-01T09:36:48;95494.84;;;32.20;31.31
72409;BME280;60402;48.082;11.628;2022-08-01T09:39:19;95494.91;;;31.97;32.59
72409;BME280;60402;48.082;11.628;2022-08-01T09:41:45;95476.06;;;31.67;33.54
72409;BME280;60402;48.082;11.628;2022-08-01T09:44:11;95485.75;;;31.93;32.14
72409;BME280;60402;48.082;11.628;2022-08-01T09:46:48;95491.81;;;30.95;32.71
72409;BME280;60402;48.082;11.628;2022-08-01T09:49:14;95482.69;;;31.14;32.89
72409;BME280;60402;48.082;11.628;2022-08-01T09:51:40;95480.47;;;30.61;33.45
72409;BME280;60402;48.082;11.628;2022-08-01T09:54:06;95487.88;;;30.70;34.16
72409;BME280;60402;48.082;11.628;2022-08-01T09:56:42;95480.22;;;30.36;33.93
72409;BME280;60402;48.082;11.628;2022-08-01T09:59:08;95465.59;;;30.28;33.46
72409;BME280;60402;48.082;11.628;2022-08-01T10:01:49;95476.31;;;30.34;34.62
72409;BME280;60402;48.082;11.628;2022-08-01T10:04:20;95477.81;;;30.19;34.52
72409;BME280;60402;48.082;11.628;2022-08-01T10:06:48;95469.44;;;30.16;34.81
72409;BME280;60402;48.082;11.628;2022-08-01T10:09:27;95470.63;;;30.20;34.79
72409;BME280;60402;48.082;11.628;2022-08-01T10:11:54;95472.44;;;29.95;35.04
72409;BME280;60402;48.082;11.628;2022-08-01T10:14:20;95474.81;;;29.68;34.84
72409;BME280;60402;48.082;11.628;2022-08-01T10:16:49;95469.59;;;29.17;36.33
72409;BME280;60402;48.082;11.628;2022-08-01T10:19:16;95464.00;;;29.19;36.19
72409;BME280;60402;48.082;11.628;2022-08-01T10:21:42;95461.25;;;29.13;36.41
72409;BME280;60402;48.082;11.628;2022-08-01T10:24:10;95456.56;;;29.10;37.19
72409;BME280;60402;48.082;11.628;2022-08-01T10:26:36;95453.50;;;28.74;36.90
72409;BME280;60402;48.082;11.628;2022-08-01T10:29:04;95460.31;;;28.76;36.85
72409;BME280;60402;48.082;11.628;2022-08-01T10:31:31;95451.50;;;28.69;37.36
72409;BME280;60402;48.082;11.628;2022-08-01T10:33:58;95457.88;;;28.88;37.32
72409;BME280;60402;48.082;11.628;2022-08-01T10:36:24;95454.28;;;28.74;36.98
72409;BME280;60402;48.082;11.628;2022-08-01T10:38:50;95446.19;;;28.60;36.86
72409;BME280;60402;48.082;11.628;2022-08-01T10:41:18;95437.94;;;28.30;37.40
72409;BME280;60402;48.082;11.628;2022-08-01T10:43:43;95441.66;;;28.72;38.02
72409;BME280;60402;48.082;11.628;2022-08-01T10:46:09;95435.78;;;28.85;36.94
72409;BME280;60402;48.082;11.628;2022-08-01T10:48:58;95447.69;;;28.74;36.66
72409;BME280;60402;48.082;11.628;2022-08-01T10:51:26;95430.16;;;28.45;36.82
72409;BME280;60402;48.082;11.628;2022-08-01T10:53:53;95443.88;;;28.58;36.62
72409;BME280;60402;48.082;11.628;2022-08-01T10:56:19;95447.59;;;28.45;36.55
72409;BME280;60402;48.082;11.628;2022-08-01T10:58:46;95440.38;;;28.60;38.22
72409;BME280;60402;48.082;11.628;2022-08-01T11:06:25;95423.91;;;28.83;36.65
72409;BME280;60402;48.082;11.628;2022-08-01T11:08:53;95431.59;;;28.73;37.25
72409;BME280;60402;48.082;11.628;2022-08-01T11:11:20;95419.97;;;28.73;37.11
72409;BME280;60402;48.082;11.628;2022-08-01T11:16:35;95415.84;;;28.89;36.41
72409;BME280;60402;48.082;11.628;2022-08-01T11:19:01;95422.16;;;28.59;37.37
72409;BME280;60402;48.082;11.628;2022-08-01T11:27:19;95422.09;;;28.17;37.53
72409;BME280;60402;48.082;11.628;2022-08-01T11:30:21;95426.22;;;28.22;38.34
72409;BME280;60402;48.082;11.628;2022-08-01T11:32:56;95423.22;;;28.48;37.89
72409;BME280;60402;48.082;11.628;2022-08-01T11:35:21;95412.47;;;28.57;37.54
72409;BME280;60402;48.082;11.628;2022-08-01T11:37:49;95409.00;;;28.24;38.33
72409;BME280;60402;48.082;11.628;2022-08-01T11:40:28;95419.50;;;28.27;38.70
72409;BME280;60402;48.082;11.628;2022-08-01T11:43:23;95411.94;;;28.45;36.76
72409;BME280;60402;48.082;11.628;2022-08-01T11:45:50;95416.13;;;28.36;37.08
72409;BME280;60402;48.082;11.628;2022-08-01T11:48:21;95407.16;;;28.47;37.98
72409;BME280;60402;48.082;11.628;2022-08-01T11:50:47;95411.59;;;28.48;38.26
72409;BME280;60402;48.082;11.628;2022-08-01T11:53:14;95404.53;;;28.57;37.96
72409;BME280;60402;48.082;11.628;2022-08-01T11:55:46;95396.06;;;28.67;37.00
72409;BME280;60402;48.082;11.628;2022-08-01T11:58:12;95415.72;;;28.95;36.97
72409;BME280;60402;48.082;11.628;2022-08-01T12:00:39;95402.94;;;28.98;36.71
72409;BME280;60402;48.082;11.628;2022-08-01T12:03:05;95400.06;;;28.56;38.07
72409;BME280;60402;48.082;11.628;2022-08-01T12:05:34;95395.84;;;28.86;36.92
72409;BME280;60402;48.082;11.628;2022-08-01T12:08:02;95406.69;;;29.06;36.78
72409;BME280;60402;48.082;11.628;2022-08-01T12:10:31;95414.03;;;29.36;36.36
72409;BME280;60402;48.082;11.628;2022-08-01T12:13:04;95406.47;;;29.69;35.27
72409;BME280;60402;48.082;11.628;2022-08-01T12:15:33;95404.03;;;29.81;34.90
72409;BME280;60402;48.082;11.628;2022-08-01T12:18:06;95398.75;;;29.71;33.88
72409;BME280;60402;48.082;11.628;2022-08-01T12:20:34;95398.94;;;29.37;34.74
72409;BME280;60402;48.082;11.628;2022-08-01T12:23:03;95397.38;;;29.65;34.74
72409;BME280;60402;48.082;11.628;2022-08-01T12:25:31;95393.31;;;29.75;34.12
72409;BME280;60402;48.082;11.628;2022-08-01T12:28:00;95399.69;;;29.66;33.83
72409;BME280;60402;48.082;11.628;2022-08-01T12:30:26;95394.28;;;29.78;33.23
72409;BME280;60402;48.082;11.628;2022-08-01T12:32:53;95398.38;;;29.83;33.12
72409;BME280;60402;48.082;11.628;2022-08-01T12:35:19;95384.13;;;29.56;33.14
72409;BME280;60402;48.082;11.628;2022-08-01T12:37:49;95388.78;;;29.31;34.17
72409;BME280;60402;48.082;11.628;2022-08-01T12:40:16;95387.72;;;29.41;34.04
72409;BME280;60402;48.082;11.628;2022-08-01T12:42:45;95376.09;;;29.49;34.85
72409;BME280;60402;48.082;11.628;2022-08-01T12:45:14;95371.22;;;29.44;34.83
72409;BME280;60402;48.082;11.628;2022-08-01T12:47:40;95378.56;;;29.37;33.94
72409;BME280;60402;48.082;11.628;2022-08-01T12:50:08;95380.63;;;29.58;33.42
72409;BME280;60402;48.082;11.628;2022-08-01T12:52:36;95375.81;;;29.68;33.22
72409;BME280;60402;48.082;11.628;2022-08-01T12:55:15;95371.81;;;29.86;33.85
72409;BME280;60402;48.082;11.628;2022-08-01T12:57:45;95365.25;;;29.93;33.98
72409;BME280;60402;48.082;11.628;2022-08-01T13:00:22;95356.19;;;30.20;33.32
72409;BME280;60402;48.082;11.628;2022-08-01T13:02:50;95356.41;;;29.70;32.81
72409;BME280;60402;48.082;11.628;2022-08-01T13:05:16;95348.66;;;29.73;32.89
72409;BME280;60402;48.082;11.628;2022-08-01T13:07:49;95352.72;;;29.70;33.12
72409;BME280;60402;48.082;11.628;2022-08-01T13:10:27;95352.97;;;29.87;33.52
72409;BME280;60402;48.082;11.628;2022-08-01T13:12:55;95354.31;;;29.86;32.61
72409;BME280;60402;48.082;11.628;2022-08-01T13:17:48;95344.72;;;30.29;31.27
72409;BME280;60402;48.082;11.628;2022-08-01T13:20:31;95343.94;;;30.14;31.54
72409;BME280;60402;48.082;11.628;2022-08-01T13:23:29;95347.94;;;29.95;32.05